createdAt,value
2022-10-26T00:01:30.767Z,64.04
2022-10-26T00:03:59.575Z,64.01
2022-10-26T00:06:29.119Z,63.89
2022-10-26T00:08:58.187Z,64.26
2022-10-26T00:11:28.051Z,64.18
2022-10-26T00:13:56.539Z,64.14
2022-10-26T00:16:27.065Z,64.10
2022-10-26T00:18:56.046Z,64.30
2022-10-26T00:21:24.484Z,64.30
2022-10-26T00:23:52.832Z,64.33
2022-10-26T00:26:21.178Z,64.51
2022-10-26T00:28:51.071Z,64.55
2022-10-26T00:31:19.424Z,64.74
2022-10-26T00:33:48.058Z,64.78
2022-10-26T00:36:17.179Z,64.88
2022-10-26T00:38:50.640Z,64.89
2022-10-26T00:41:20.522Z,64.90
2022-10-26T00:43:50.457Z,65.05
2022-10-26T00:46:23.079Z,65.12
2022-10-26T00:48:53.636Z,65.35
2022-10-26T00:51:27.080Z,65.23
2022-10-26T00:53:57.124Z,65.47
2022-10-26T00:56:25.863Z,65.46
2022-10-26T00:58:56.787Z,65.27
2022-10-26T01:01:25.281Z,65.43
2022-10-26T01:03:54.737Z,65.36
2022-10-26T01:06:23.387Z,65.60
2022-10-26T01:08:52.175Z,65.43
2022-10-26T01:11:21.563Z,65.57
2022-10-26T01:13:52.534Z,65.54
2022-10-26T01:16:43.075Z,65.48
2022-10-26T01:19:47.958Z,65.54
2022-10-26T01:22:20.960Z,65.68
2022-10-26T01:25:14.751Z,65.56
2022-10-26T01:27:46.426Z,65.67
2022-10-26T01:30:28.168Z,65.53
2022-10-26T01:33:12.277Z,65.46
2022-10-26T01:35:43.987Z,65.78
2022-10-26T01:38:19.487Z,65.59
2022-10-26T01:40:55.398Z,65.40
2022-10-26T01:43:26.875Z,65.49
2022-10-26T01:45:58.747Z,65.56
2022-10-26T01:48:29.558Z,65.57
2022-10-26T01:50:59.809Z,65.65
2022-10-26T01:53:29.864Z,65.64
2022-10-26T01:55:58.676Z,65.90
2022-10-26T01:58:51.813Z,65.50
2022-10-26T02:01:44.827Z,65.55
2022-10-26T02:07:00.856Z,65.45
2022-10-26T02:09:37.286Z,65.32
2022-10-26T02:12:12.932Z,65.35
2022-10-26T02:14:49.810Z,65.29
2022-10-26T02:17:29.051Z,65.05
2022-10-26T02:20:02.034Z,65.08
2022-10-26T02:22:34.564Z,65.08
2022-10-26T02:25:08.902Z,65.08
2022-10-26T02:27:41.823Z,65.01
2022-10-26T02:30:12.165Z,65.27
2022-10-26T02:32:47.551Z,64.96
2022-10-26T02:35:18.883Z,65.06
2022-10-26T02:37:49.599Z,64.88
2022-10-26T02:40:22.770Z,64.91
2022-10-26T02:42:53.546Z,65.00
2022-10-26T02:45:26.299Z,64.92
2022-10-26T02:47:57.151Z,64.93
2022-10-26T02:50:31.427Z,64.91
2022-10-26T02:53:09.091Z,65.07
2022-10-26T02:55:42.166Z,64.93
2022-10-26T02:58:16.176Z,64.86
2022-10-26T03:00:46.322Z,64.49
2022-10-26T03:03:17.401Z,64.55
2022-10-26T03:05:45.902Z,64.61
2022-10-26T03:08:14.447Z,64.51
2022-10-26T03:10:44.668Z,64.38
2022-10-26T03:13:14.604Z,64.50
2022-10-26T03:15:43.163Z,64.48
2022-10-26T03:18:11.656Z,64.54
2022-10-26T03:20:41.515Z,64.42
2022-10-26T03:23:10.053Z,64.68
2022-10-26T03:25:38.315Z,65.04
2022-10-26T03:28:07.764Z,65.22
2022-10-26T03:30:36.179Z,65.31
2022-10-26T03:33:04.631Z,65.51
2022-10-26T03:35:33.518Z,65.64
2022-10-26T03:38:03.395Z,65.65
2022-10-26T03:40:32.102Z,66.01
2022-10-26T03:43:00.402Z,66.17
2022-10-26T03:45:29.189Z,66.60
2022-10-26T03:47:57.481Z,66.60
2022-10-26T03:50:25.838Z,66.85
2022-10-26T03:52:54.327Z,67.05
2022-10-26T03:55:24.410Z,67.07
2022-10-26T03:57:52.964Z,67.26
2022-10-26T04:00:21.612Z,67.34
2022-10-26T04:02:56.893Z,67.22
2022-10-26T04:05:25.500Z,67.23
2022-10-26T04:07:54.922Z,67.26
2022-10-26T04:10:26.619Z,67.50
2022-10-26T04:12:55.055Z,67.58
2022-10-26T04:15:24.099Z,67.54
2022-10-26T04:17:57.881Z,67.63
2022-10-26T04:20:26.577Z,68.25
2022-10-26T04:23:01.981Z,67.83
2022-10-26T04:25:33.428Z,67.70
2022-10-26T04:28:02.717Z,68.12
2022-10-26T04:30:31.208Z,68.21
2022-10-26T04:32:59.632Z,67.98
2022-10-26T04:35:28.572Z,68.45
2022-10-26T04:37:59.976Z,68.44
2022-10-26T04:40:29.086Z,68.74
2022-10-26T04:42:59.095Z,68.63
2022-10-26T04:45:31.149Z,68.83
2022-10-26T04:48:04.496Z,68.67
2022-10-26T04:50:33.356Z,68.96
2022-10-26T04:53:01.888Z,69.05
2022-10-26T04:55:30.323Z,69.10
2022-10-26T04:58:01.478Z,69.39
2022-10-26T05:00:33.124Z,69.99
2022-10-26T05:03:01.798Z,70.08
2022-10-26T05:05:31.942Z,70.25
2022-10-26T05:08:00.396Z,70.51
2022-10-26T05:10:29.808Z,70.46
2022-10-26T05:13:00.939Z,70.51
2022-10-26T05:15:30.670Z,70.34
2022-10-26T05:18:00.888Z,70.28
2022-10-26T05:20:31.553Z,70.44
2022-10-26T05:23:01.311Z,70.62
2022-10-26T05:25:31.372Z,70.65
2022-10-26T05:28:01.875Z,70.89
2022-10-26T05:30:31.217Z,70.78
2022-10-26T05:33:01.070Z,70.65
2022-10-26T05:35:29.890Z,70.52
2022-10-26T05:37:58.547Z,70.23
2022-10-26T05:40:27.869Z,70.22
2022-10-26T05:43:03.355Z,70.20
2022-10-26T05:45:32.031Z,70.24
2022-10-26T05:48:02.832Z,70.25
2022-10-26T05:50:31.891Z,70.08
2022-10-26T05:53:00.307Z,70.03
2022-10-26T05:55:29.654Z,69.87
2022-10-26T05:57:59.216Z,69.73
2022-10-26T06:00:31.164Z,69.71
2022-10-26T06:03:17.939Z,69.72
2022-10-26T06:05:55.837Z,69.62
2022-10-26T06:08:26.166Z,69.65
2022-10-26T06:10:56.238Z,69.64
2022-10-26T06:13:25.224Z,69.50
2022-10-26T06:16:07.934Z,69.61
2022-10-26T06:18:47.779Z,69.42
2022-10-26T06:21:35.323Z,69.33
2022-10-26T06:24:10.268Z,69.46
2022-10-26T06:26:47.199Z,69.37
2022-10-26T06:29:26.403Z,69.43
2022-10-26T06:31:56.444Z,69.28
2022-10-26T06:34:28.786Z,69.01
2022-10-26T06:36:59.805Z,68.86
2022-10-26T06:39:31.732Z,68.48
2022-10-26T06:42:00.636Z,68.58
2022-10-26T06:44:29.773Z,68.22
2022-10-26T06:47:08.096Z,68.23
2022-10-26T06:49:40.324Z,68.41
2022-10-26T06:52:17.476Z,68.44
2022-10-26T06:54:51.494Z,68.16
2022-10-26T06:57:21.544Z,68.36
2022-10-26T06:59:53.243Z,68.34
2022-10-26T07:02:23.686Z,68.53
2022-10-26T07:04:52.202Z,68.46
2022-10-26T07:07:22.796Z,67.82
2022-10-26T07:09:51.697Z,68.18
2022-10-26T07:12:20.241Z,68.16
2022-10-26T07:14:48.624Z,68.46
2022-10-26T07:17:17.227Z,68.39
2022-10-26T07:19:47.406Z,68.58
2022-10-26T07:22:15.878Z,68.51
2022-10-26T07:24:44.215Z,68.51
2022-10-26T07:27:12.499Z,68.63
2022-10-26T07:29:41.046Z,68.62
2022-10-26T07:32:09.652Z,68.64
2022-10-26T07:34:38.034Z,68.16
2022-10-26T07:37:07.833Z,67.31
2022-10-26T07:39:36.172Z,67.31
2022-10-26T07:42:04.528Z,67.19
2022-10-26T07:44:32.867Z,67.12
2022-10-26T07:47:01.178Z,66.95
2022-10-26T07:49:29.540Z,66.22
2022-10-26T07:51:57.879Z,65.80
2022-10-26T07:54:28.156Z,65.43
2022-10-26T07:56:56.648Z,65.50
2022-10-26T07:59:25.077Z,65.59
2022-10-26T08:01:54.027Z,64.93
2022-10-26T08:04:22.552Z,64.12
2022-10-26T08:06:50.940Z,64.14
2022-10-26T08:09:20.522Z,63.61
2022-10-26T08:11:50.350Z,63.81
2022-10-26T08:14:18.742Z,63.50
2022-10-26T08:16:48.250Z,62.99
2022-10-26T08:19:16.567Z,62.92
2022-10-26T08:21:44.970Z,63.58
2022-10-26T08:24:13.687Z,63.71
2022-10-26T08:26:42.795Z,63.50
2022-10-26T08:29:12.639Z,63.15
2022-10-26T08:31:41.518Z,63.37
2022-10-26T08:34:10.632Z,63.33
2022-10-26T08:36:39.028Z,63.04
2022-10-26T08:39:07.515Z,63.03
2022-10-26T08:41:39.467Z,63.29
2022-10-26T08:44:27.771Z,63.26
2022-10-26T08:47:01.146Z,63.27
2022-10-26T08:49:34.135Z,63.13
2022-10-26T08:52:04.225Z,63.65
2022-10-26T08:54:40.134Z,63.73
2022-10-26T08:57:16.570Z,63.32
2022-10-26T08:59:52.752Z,63.66
2022-10-26T09:02:22.904Z,63.81
2022-10-26T09:04:51.634Z,64.06
2022-10-26T09:07:44.365Z,64.19
2022-10-26T09:13:07.888Z,64.19
2022-10-26T09:15:50.388Z,64.33
2022-10-26T09:18:33.421Z,64.32
2022-10-26T09:21:14.414Z,64.24
2022-10-26T09:23:57.287Z,64.44
2022-10-26T09:26:39.239Z,63.71
2022-10-26T09:29:13.184Z,63.80
2022-10-26T09:31:45.621Z,64.04
2022-10-26T09:34:24.633Z,63.85
2022-10-26T09:36:57.377Z,63.62
2022-10-26T09:39:33.850Z,63.73
2022-10-26T09:42:08.753Z,64.24
2022-10-26T09:44:44.075Z,64.50
2022-10-26T09:47:19.923Z,64.57
2022-10-26T09:49:52.700Z,64.76
2022-10-26T09:52:21.294Z,64.54
2022-10-26T09:54:49.628Z,64.53
2022-10-26T09:57:21.487Z,64.11
2022-10-26T09:59:52.761Z,64.41
2022-10-26T10:02:40.130Z,64.34
2022-10-26T10:05:50.369Z,64.01
2022-10-26T10:08:22.138Z,64.17
2022-10-26T10:11:02.978Z,64.01
2022-10-26T10:13:33.351Z,64.20
2022-10-26T10:16:09.779Z,64.24
2022-10-26T10:18:41.611Z,64.26
2022-10-26T10:21:11.897Z,64.43
2022-10-26T10:23:52.140Z,64.35
2022-10-26T10:26:20.692Z,63.88
2022-10-26T10:28:59.811Z,63.47
2022-10-26T10:31:32.461Z,63.40
2022-10-26T10:34:16.289Z,63.40
2022-10-26T10:36:44.703Z,63.53
2022-10-26T10:39:37.137Z,63.32
2022-10-26T10:42:08.238Z,63.58
2022-10-26T10:44:36.970Z,63.78
2022-10-26T10:47:06.816Z,63.52
2022-10-26T10:49:36.789Z,62.95
2022-10-26T10:52:05.583Z,62.48
2022-10-26T10:54:36.100Z,61.82
2022-10-26T10:57:16.118Z,62.07
2022-10-26T10:59:57.274Z,61.84
2022-10-26T11:02:58.635Z,61.33
2022-10-26T11:05:39.748Z,61.35
2022-10-26T11:08:12.376Z,61.70
2022-10-26T11:10:46.197Z,61.71
2022-10-26T11:13:21.645Z,61.73
2022-10-26T11:15:54.293Z,61.31
2022-10-26T11:18:28.271Z,61.52
2022-10-26T11:21:03.642Z,60.92
2022-10-26T11:23:40.378Z,59.78
2022-10-26T11:26:14.761Z,60.16
2022-10-26T11:28:50.943Z,60.47
2022-10-26T11:31:24.698Z,60.14
2022-10-26T11:34:07.764Z,60.54
2022-10-26T11:36:38.975Z,60.21
2022-10-26T11:39:17.946Z,60.19
2022-10-26T11:41:51.403Z,60.55
2022-10-26T11:44:26.091Z,60.35
2022-10-26T11:46:58.260Z,60.29
2022-10-26T11:49:32.700Z,59.68
2022-10-26T11:52:11.678Z,59.80
2022-10-26T11:54:45.376Z,60.38
2022-10-26T11:57:13.997Z,60.31
2022-10-26T11:59:47.927Z,60.69
2022-10-26T12:02:19.498Z,60.31
2022-10-26T12:04:53.359Z,60.56
2022-10-26T12:07:27.907Z,60.41
2022-10-26T12:09:57.729Z,60.68
2022-10-26T12:12:37.325Z,60.81
2022-10-26T12:15:18.606Z,59.83
2022-10-26T12:17:53.042Z,60.27
2022-10-26T12:21:02.582Z,60.16
2022-10-26T12:23:40.949Z,60.37
2022-10-26T12:26:42.631Z,59.43
2022-10-26T12:29:39.954Z,59.87
2022-10-26T12:32:50.848Z,59.46
2022-10-26T12:35:38.467Z,58.61
2022-10-26T12:38:33.029Z,58.15
2022-10-26T12:41:24.921Z,58.03
2022-10-26T12:43:58.458Z,57.65
2022-10-26T12:46:42.322Z,57.94
2022-10-26T12:49:58.516Z,58.54
2022-10-26T12:52:50.218Z,58.70
2022-10-26T12:55:52.236Z,58.14
2022-10-26T12:58:41.113Z,58.30
2022-10-26T13:01:43.541Z,57.88
2022-10-26T13:04:31.414Z,57.91
2022-10-26T13:07:18.231Z,58.51
2022-10-26T13:09:48.598Z,58.94
2022-10-26T13:12:17.145Z,59.06
2022-10-26T13:14:59.170Z,58.89
2022-10-26T13:17:31.712Z,57.91
2022-10-26T13:20:02.697Z,58.14
2022-10-26T13:22:32.623Z,58.55
2022-10-26T13:25:03.743Z,58.18
2022-10-26T13:27:46.528Z,58.33
2022-10-26T13:30:24.023Z,58.59
2022-10-26T13:32:55.775Z,58.48
2022-10-26T13:35:26.459Z,57.36
2022-10-26T13:37:57.355Z,57.78
2022-10-26T13:40:28.248Z,58.18
2022-10-26T13:42:59.966Z,58.43
2022-10-26T13:45:33.327Z,58.44
2022-10-26T13:48:06.683Z,58.75
2022-10-26T13:50:40.860Z,58.94
2022-10-26T13:53:17.073Z,58.43
2022-10-26T13:55:52.121Z,58.43
2022-10-26T13:58:25.495Z,58.72
2022-10-26T14:01:18.264Z,58.70
2022-10-26T14:03:46.852Z,58.78
2022-10-26T14:06:19.568Z,58.38
2022-10-26T14:08:51.475Z,58.44
2022-10-26T14:11:23.126Z,58.60
2022-10-26T14:13:52.931Z,58.67
2022-10-26T14:16:29.154Z,58.73
2022-10-26T14:18:58.175Z,59.27
2022-10-26T14:21:26.826Z,58.99
2022-10-26T14:23:57.669Z,59.17
2022-10-26T14:26:29.093Z,59.39
2022-10-26T14:28:59.343Z,59.11
2022-10-26T14:31:31.071Z,59.66
2022-10-26T14:34:01.781Z,59.85
2022-10-26T14:36:34.459Z,59.82
2022-10-26T14:39:07.846Z,59.82
2022-10-26T14:41:37.538Z,60.02
2022-10-26T14:44:06.291Z,60.15
2022-10-26T14:46:37.180Z,60.34
2022-10-26T14:49:06.275Z,60.47
2022-10-26T14:51:37.475Z,60.72
2022-10-26T14:54:06.378Z,60.58
2022-10-26T14:56:41.760Z,60.96
2022-10-26T14:59:14.580Z,61.09
2022-10-26T15:01:56.694Z,61.50
2022-10-26T15:04:34.338Z,61.53
2022-10-26T15:07:19.441Z,61.29
2022-10-26T15:09:49.156Z,61.62
2022-10-26T15:12:28.935Z,61.77
2022-10-26T15:15:06.608Z,61.78
2022-10-26T15:17:42.718Z,61.69
2022-10-26T15:20:19.051Z,61.91
2022-10-26T15:22:53.591Z,62.02
2022-10-26T15:25:25.223Z,62.22
2022-10-26T15:27:54.123Z,62.21
2022-10-26T15:30:25.641Z,62.28
2022-10-26T15:32:56.777Z,62.38
2022-10-26T15:35:42.967Z,62.26
2022-10-26T15:38:12.823Z,62.44
2022-10-26T15:40:44.883Z,62.48
2022-10-26T15:43:13.353Z,62.38
2022-10-26T15:45:49.187Z,62.61
2022-10-26T15:48:24.423Z,62.56
2022-10-26T15:50:52.895Z,62.72
2022-10-26T15:53:22.916Z,62.82
2022-10-26T15:55:54.075Z,63.04
2022-10-26T15:58:22.766Z,63.11
2022-10-26T16:00:52.617Z,63.17
2022-10-26T16:03:24.614Z,63.17
2022-10-26T16:05:58.031Z,63.37
2022-10-26T16:08:28.972Z,63.38
2022-10-26T16:10:57.337Z,63.63
2022-10-26T16:13:26.833Z,63.60
2022-10-26T16:15:55.170Z,63.57
2022-10-26T16:18:25.033Z,63.98
2022-10-26T16:20:53.467Z,63.89
2022-10-26T16:23:22.868Z,63.82
2022-10-26T16:25:51.607Z,63.79
2022-10-26T16:28:19.935Z,63.95
2022-10-26T16:30:48.266Z,64.16
2022-10-26T16:33:17.070Z,64.36
2022-10-26T16:35:46.834Z,64.31
2022-10-26T16:38:15.103Z,64.76
2022-10-26T16:40:45.255Z,64.65
2022-10-26T16:43:13.590Z,65.05
2022-10-26T16:45:42.949Z,65.17
2022-10-26T16:48:15.372Z,64.86
2022-10-26T16:50:43.921Z,65.34
2022-10-26T16:53:13.874Z,65.40
2022-10-26T16:58:11.732Z,65.57
2022-10-26T17:00:40.057Z,65.43
2022-10-26T17:03:09.088Z,65.89
2022-10-26T17:05:37.480Z,66.02
2022-10-26T17:08:06.128Z,65.94
2022-10-26T17:10:35.907Z,66.01
2022-10-26T17:13:04.570Z,66.16
2022-10-26T17:15:34.760Z,66.31
2022-10-26T17:18:03.120Z,66.01
2022-10-26T17:20:31.773Z,66.10
2022-10-26T17:23:00.152Z,66.01
2022-10-26T17:25:28.676Z,65.91
2022-10-26T17:27:58.710Z,65.87
2022-10-26T17:30:28.480Z,65.73
2022-10-26T17:32:58.836Z,65.06
2022-10-26T17:35:27.510Z,65.04
2022-10-26T17:37:55.984Z,65.21
2022-10-26T17:40:24.391Z,65.22
2022-10-26T17:42:52.984Z,65.27
2022-10-26T17:45:22.905Z,65.13
2022-10-26T17:47:51.495Z,65.09
2022-10-26T17:50:20.188Z,65.38
2022-10-26T17:52:48.449Z,65.58
2022-10-26T17:55:17.379Z,65.58
2022-10-26T17:57:45.765Z,65.43
2022-10-26T18:00:15.510Z,65.72
2022-10-26T18:02:45.405Z,65.40
2022-10-26T18:05:14.001Z,65.84
2022-10-26T18:07:42.398Z,65.89
2022-10-26T18:10:26.194Z,65.98
2022-10-26T18:12:59.629Z,65.96
2022-10-26T18:15:28.112Z,66.12
2022-10-26T18:17:58.643Z,65.93
2022-10-26T18:20:29.337Z,66.20
2022-10-26T18:22:58.039Z,66.21
2022-10-26T18:25:26.637Z,66.17
2022-10-26T18:27:54.977Z,66.22
2022-10-26T18:30:23.899Z,66.12
2022-10-26T18:32:53.228Z,66.35
2022-10-26T18:35:23.462Z,66.50
2022-10-26T18:37:52.147Z,66.31
2022-10-26T18:40:20.703Z,66.66
2022-10-26T18:42:49.107Z,66.47
2022-10-26T18:45:17.627Z,66.77
2022-10-26T18:47:46.047Z,66.85
2022-10-26T18:50:14.482Z,66.90
2022-10-26T18:52:44.244Z,67.26
2022-10-26T18:55:12.758Z,67.10
2022-10-26T18:57:41.226Z,67.07
2022-10-26T19:00:10.971Z,67.13
2022-10-26T19:02:39.738Z,67.43
2022-10-26T19:05:09.092Z,67.30
2022-10-26T19:07:39.384Z,67.56
2022-10-26T19:10:10.686Z,67.55
2022-10-26T19:12:39.115Z,67.66
2022-10-26T19:15:08.839Z,67.75
2022-10-26T19:17:37.102Z,67.87
2022-10-26T19:20:06.370Z,67.98
2022-10-26T19:22:34.761Z,68.00
2022-10-26T19:25:03.980Z,68.03
2022-10-26T19:27:34.133Z,68.03
2022-10-26T19:30:02.776Z,68.09
2022-10-26T19:32:31.184Z,68.15
2022-10-26T19:34:59.938Z,68.01
2022-10-26T19:37:28.633Z,67.93
2022-10-26T19:39:57.152Z,68.01
2022-10-26T19:42:25.535Z,67.94
2022-10-26T19:44:55.618Z,67.82
2022-10-26T19:47:24.131Z,67.80
2022-10-26T19:49:52.767Z,67.92
2022-10-26T19:52:21.328Z,67.83
2022-10-26T19:54:49.683Z,67.91
2022-10-26T19:57:18.129Z,67.92
2022-10-26T19:59:46.792Z,67.88
2022-10-26T20:02:16.568Z,67.92
2022-10-26T20:04:45.452Z,67.94
2022-10-26T20:07:15.449Z,67.95
2022-10-26T20:09:43.976Z,67.87
2022-10-26T20:12:14.012Z,67.92
2022-10-26T20:14:42.549Z,68.01
2022-10-26T20:17:10.905Z,68.04
2022-10-26T20:19:40.841Z,68.00
2022-10-26T20:22:09.255Z,68.21
2022-10-26T20:24:37.669Z,68.16
2022-10-26T20:27:06.032Z,68.23
2022-10-26T20:29:34.404Z,68.22
2022-10-26T20:32:02.764Z,68.18
2022-10-26T20:34:31.121Z,68.21
2022-10-26T20:37:01.231Z,68.21
2022-10-26T20:39:30.160Z,68.25
2022-10-26T20:41:59.110Z,68.17
2022-10-26T20:44:32.543Z,68.38
2022-10-26T20:47:01.616Z,68.45
2022-10-26T20:49:30.616Z,68.49
2022-10-26T20:52:22.394Z,68.43
2022-10-26T20:54:56.901Z,68.63
2022-10-26T20:57:31.805Z,68.63
2022-10-26T21:00:04.551Z,68.72
2022-10-26T21:02:33.353Z,68.77
2022-10-26T21:05:01.938Z,68.77
2022-10-26T21:07:31.742Z,68.73
2022-10-26T21:10:00.501Z,68.85
2022-10-26T21:12:28.904Z,68.92
2022-10-26T21:14:57.263Z,69.03
2022-10-26T21:17:25.686Z,68.87
2022-10-26T21:19:54.121Z,69.11
2022-10-26T21:22:23.064Z,69.04
2022-10-26T21:24:52.882Z,69.09
2022-10-26T21:27:21.240Z,69.26
2022-10-26T21:29:49.642Z,69.31
2022-10-26T21:32:18.046Z,69.39
2022-10-26T21:34:46.438Z,69.39
2022-10-26T21:37:14.790Z,69.52
2022-10-26T21:39:43.233Z,69.54
2022-10-26T21:42:13.117Z,69.56
2022-10-26T21:44:42.050Z,69.55
2022-10-26T21:47:11.135Z,69.61
2022-10-26T21:52:08.667Z,69.68
2022-10-26T21:54:37.095Z,69.68
2022-10-26T21:57:05.886Z,69.67
2022-10-26T21:59:35.784Z,69.65
2022-10-26T22:02:04.203Z,69.76
2022-10-26T22:04:32.743Z,69.69
2022-10-26T22:07:01.013Z,69.73
2022-10-26T22:09:29.392Z,69.85
2022-10-26T22:11:57.920Z,69.82
2022-10-26T22:14:26.446Z,69.82
2022-10-26T22:16:56.270Z,69.86
2022-10-26T22:19:24.843Z,69.89
2022-10-26T22:21:53.254Z,69.88
2022-10-26T22:24:21.586Z,69.79
2022-10-26T22:26:50.008Z,69.92
2022-10-26T22:29:18.475Z,69.89
2022-10-26T22:31:47.240Z,69.89
2022-10-26T22:34:18.208Z,69.71
2022-10-26T22:36:46.576Z,69.72
2022-10-26T22:39:14.996Z,69.54
2022-10-26T22:41:43.415Z,69.60
2022-10-26T22:44:11.773Z,69.49
2022-10-26T22:46:40.137Z,69.60
2022-10-26T22:49:08.438Z,69.52
2022-10-26T22:51:38.263Z,69.43
2022-10-26T22:54:07.135Z,69.41
2022-10-26T22:56:36.769Z,69.44
2022-10-26T22:59:06.437Z,69.47
2022-10-26T23:01:41.983Z,69.39
2022-10-26T23:04:13.121Z,69.46
2022-10-26T23:06:42.915Z,69.20
2022-10-26T23:09:11.319Z,69.21
2022-10-26T23:11:39.681Z,69.20
2022-10-26T23:14:08.171Z,69.24
2022-10-26T23:16:36.883Z,69.37
2022-10-26T23:19:05.261Z,69.44
2022-10-26T23:21:33.611Z,69.42
2022-10-26T23:24:03.683Z,69.47
2022-10-26T23:26:32.508Z,69.33
2022-10-26T23:29:00.876Z,69.19
2022-10-26T23:31:30.756Z,69.20
2022-10-26T23:33:59.141Z,69.37
2022-10-26T23:36:27.550Z,69.28
2022-10-26T23:38:55.849Z,69.26
2022-10-26T23:41:26.068Z,69.21
2022-10-26T23:43:54.490Z,69.29
2022-10-26T23:46:22.863Z,69.49
2022-10-26T23:48:51.335Z,69.32
2022-10-26T23:51:20.035Z,69.35
2022-10-26T23:53:48.365Z,69.42
2022-10-26T23:56:16.671Z,69.32
2022-10-26T23:58:50.643Z,69.32
